sensor_id;sensor_type;location;lat;lon;timestamp;temperature;humidity
21518;DHT22;61765;45.794;24.150;2023-01-16T00:03:12;7.70;86.20
21518;DHT22;61765;45.794;24.150;2023-01-16T00:11:18;7.30;87.00
21518;DHT22;61765;45.794;24.150;2023-01-16T00:19:26;7.40;86.90
21518;DHT22;61765;45.794;24.150;2023-01-16T00:27:31;7.20;87.40
21518;DHT22;61765;45.794;24.150;2023-01-16T00:35:39;6.90;87.30
21518;DHT22;61765;45.794;24.150;2023-01-16T00:43:44;7.10;87.30
21518;DHT22;61765;45.794;24.150;2023-01-16T00:51:53;7.00;87.70
21518;DHT22;61765;45.794;24.150;2023-01-16T00:59:58;7.00;86.90
21518;DHT22;61765;45.794;24.150;2023-01-16T01:08:06;7.30;86.40
21518;DHT22;61765;45.794;24.150;2023-01-16T01:16:12;7.10;87.70
21518;DHT22;61765;45.794;24.150;2023-01-16T01:24:20;6.90;87.60
21518;DHT22;61765;45.794;24.150;2023-01-16T01:32:25;7.20;87.70
21518;DHT22;61765;45.794;24.150;2023-01-16T01:40:33;7.40;87.80
21518;DHT22;61765;45.794;24.150;2023-01-16T01:48:40;7.10;87.80
21518;DHT22;61765;45.794;24.150;2023-01-16T01:56:52;7.30;88.50
21518;DHT22;61765;45.794;24.150;2023-01-16T02:04:59;6.90;89.30
21518;DHT22;61765;45.794;24.150;2023-01-16T02:13:07;7.10;88.80
21518;DHT22;61765;45.794;24.150;2023-01-16T02:21:26;6.80;89.00
21518;DHT22;61765;45.794;24.150;2023-01-16T02:30:01;7.10;89.10
21518;DHT22;61765;45.794;24.150;2023-01-16T02:38:15;7.60;87.90
21518;DHT22;61765;45.794;24.150;2023-01-16T02:46:29;7.90;86.70
21518;DHT22;61765;45.794;24.150;2023-01-16T02:54:45;7.40;86.80
21518;DHT22;61765;45.794;24.150;2023-01-16T03:02:51;7.10;88.00
21518;DHT22;61765;45.794;24.150;2023-01-16T03:11:12;6.90;88.70
21518;DHT22;61765;45.794;24.150;2023-01-16T03:19:31;7.30;88.30
21518;DHT22;61765;45.794;24.150;2023-01-16T03:27:52;8.10;86.10
21518;DHT22;61765;45.794;24.150;2023-01-16T03:36:01;8.10;85.30
21518;DHT22;61765;45.794;24.150;2023-01-16T03:44:17;8.40;84.50
21518;DHT22;61765;45.794;24.150;2023-01-16T03:52:32;8.70;83.90
21518;DHT22;61765;45.794;24.150;2023-01-16T04:00:48;8.20;84.10
21518;DHT22;61765;45.794;24.150;2023-01-16T04:08:55;7.80;86.00
21518;DHT22;61765;45.794;24.150;2023-01-16T04:17:04;8.20;85.80
21518;DHT22;61765;45.794;24.150;2023-01-16T04:25:11;8.40;84.30
21518;DHT22;61765;45.794;24.150;2023-01-16T04:33:19;8.60;83.40
21518;DHT22;61765;45.794;24.150;2023-01-16T04:41:24;8.70;83.40
21518;DHT22;61765;45.794;24.150;2023-01-16T04:49:45;8.70;82.90
21518;DHT22;61765;45.794;24.150;2023-01-16T04:57:50;8.40;83.40
21518;DHT22;61765;45.794;24.150;2023-01-16T05:06:02;8.50;84.20
21518;DHT22;61765;45.794;24.150;2023-01-16T05:14:08;8.60;83.20
21518;DHT22;61765;45.794;24.150;2023-01-16T05:22:16;9.00;82.30
21518;DHT22;61765;45.794;24.150;2023-01-16T05:30:21;8.80;82.30
21518;DHT22;61765;45.794;24.150;2023-01-16T05:38:29;9.00;82.80
21518;DHT22;61765;45.794;24.150;2023-01-16T05:46:35;8.80;82.60
21518;DHT22;61765;45.794;24.150;2023-01-16T05:54:43;8.80;83.10
21518;DHT22;61765;45.794;24.150;2023-01-16T06:02:48;9.30;82.80
21518;DHT22;61765;45.794;24.150;2023-01-16T06:10:57;9.20;82.30
21518;DHT22;61765;45.794;24.150;2023-01-16T06:19:03;9.10;82.20
21518;DHT22;61765;45.794;24.150;2023-01-16T06:27:11;8.50;83.00
21518;DHT22;61765;45.794;24.150;2023-01-16T06:35:16;8.30;83.20
21518;DHT22;61765;45.794;24.150;2023-01-16T06:43:25;8.50;84.00
21518;DHT22;61765;45.794;24.150;2023-01-16T06:51:31;8.30;83.80
21518;DHT22;61765;45.794;24.150;2023-01-16T06:59:38;8.70;83.60
21518;DHT22;61765;45.794;24.150;2023-01-16T07:07:44;8.60;83.40
21518;DHT22;61765;45.794;24.150;2023-01-16T07:15:52;8.90;83.50
21518;DHT22;61765;45.794;24.150;2023-01-16T07:24:12;8.90;82.80
21518;DHT22;61765;45.794;24.150;2023-01-16T07:32:20;9.00;82.20
21518;DHT22;61765;45.794;24.150;2023-01-16T07:40:26;9.20;82.60
21518;DHT22;61765;45.794;24.150;2023-01-16T07:48:34;9.30;79.80
21518;DHT22;61765;45.794;24.150;2023-01-16T07:56:40;8.90;81.20
21518;DHT22;61765;45.794;24.150;2023-01-16T08:04:50;8.50;83.00
21518;DHT22;61765;45.794;24.150;2023-01-16T08:12:55;8.60;83.50
21518;DHT22;61765;45.794;24.150;2023-01-16T08:21:03;8.50;83.60
21518;DHT22;61765;45.794;24.150;2023-01-16T08:29:10;8.90;82.40
21518;DHT22;61765;45.794;24.150;2023-01-16T08:37:18;9.40;80.00
21518;DHT22;61765;45.794;24.150;2023-01-16T08:45:23;9.40;79.30
21518;DHT22;61765;45.794;24.150;2023-01-16T08:53:44;9.90;79.30
21518;DHT22;61765;45.794;24.150;2023-01-16T09:01:49;10.80;75.60
21518;DHT22;61765;45.794;24.150;2023-01-16T09:09:57;11.50;75.00
21518;DHT22;61765;45.794;24.150;2023-01-16T09:18:02;12.60;72.40
21518;DHT22;61765;45.794;24.150;2023-01-16T09:26:10;12.80;70.20
21518;DHT22;61765;45.794;24.150;2023-01-16T09:34:17;11.70;70.40
21518;DHT22;61765;45.794;24.150;2023-01-16T09:42:36;12.20;70.80
21518;DHT22;61765;45.794;24.150;2023-01-16T09:50:57;12.50;72.30
21518;DHT22;61765;45.794;24.150;2023-01-16T09:59:16;12.60;74.10
21518;DHT22;61765;45.794;24.150;2023-01-16T10:07:44;12.70;74.20
21518;DHT22;61765;45.794;24.150;2023-01-16T10:15:58;12.80;73.90
21518;DHT22;61765;45.794;24.150;2023-01-16T10:24:15;12.00;72.70
21518;DHT22;61765;45.794;24.150;2023-01-16T10:32:30;11.30;73.70
21518;DHT22;61765;45.794;24.150;2023-01-16T10:40:38;11.30;73.10
21518;DHT22;61765;45.794;24.150;2023-01-16T10:48:46;11.70;74.00
21518;DHT22;61765;45.794;24.150;2023-01-16T10:57:14;12.10;72.20
21518;DHT22;61765;45.794;24.150;2023-01-16T11:05:29;12.00;73.50
21518;DHT22;61765;45.794;24.150;2023-01-16T11:13:48;12.50;73.60
21518;DHT22;61765;45.794;24.150;2023-01-16T11:22:22;13.00;71.80
21518;DHT22;61765;45.794;24.150;2023-01-16T11:30:32;12.70;71.70
21518;DHT22;61765;45.794;24.150;2023-01-16T11:38:44;12.60;71.40
21518;DHT22;61765;45.794;24.150;2023-01-16T11:46:50;12.10;72.70
21518;DHT22;61765;45.794;24.150;2023-01-16T11:55:05;11.60;73.30
21518;DHT22;61765;45.794;24.150;2023-01-16T12:03:37;11.40;74.60
21518;DHT22;61765;45.794;24.150;2023-01-16T12:12:01;11.30;75.60
21518;DHT22;61765;45.794;24.150;2023-01-16T12:20:43;12.00;74.20
21518;DHT22;61765;45.794;24.150;2023-01-16T12:29:06;12.10;73.80
21518;DHT22;61765;45.794;24.150;2023-01-16T12:37:26;12.10;72.80
21518;DHT22;61765;45.794;24.150;2023-01-16T12:45:44;12.00;73.20
21518;DHT22;61765;45.794;24.150;2023-01-16T12:54:17;11.30;74.20
21518;DHT22;61765;45.794;24.150;2023-01-16T13:02:31;11.60;73.40
21518;DHT22;61765;45.794;24.150;2023-01-16T13:10:41;11.30;73.70
21518;DHT22;61765;45.794;24.150;2023-01-16T13:27:39;10.80;75.90
21518;DHT22;61765;45.794;24.150;2023-01-16T13:35:54;10.60;76.00
21518;DHT22;61765;45.794;24.150;2023-01-16T13:44:07;10.10;77.80
21518;DHT22;61765;45.794;24.150;2023-01-16T13:52:29;9.80;78.90
21518;DHT22;61765;45.794;24.150;2023-01-16T14:00:35;9.70;79.90
21518;DHT22;61765;45.794;24.150;2023-01-16T14:08:50;9.80;79.20
21518;DHT22;61765;45.794;24.150;2023-01-16T14:17:08;10.10;78.50
21518;DHT22;61765;45.794;24.150;2023-01-16T14:25:21;10.20;78.60
21518;DHT22;61765;45.794;24.150;2023-01-16T14:33:28;10.20;78.00
21518;DHT22;61765;45.794;24.150;2023-01-16T14:41:37;9.90;79.10
21518;DHT22;61765;45.794;24.150;2023-01-16T14:50:06;9.80;79.40
21518;DHT22;61765;45.794;24.150;2023-01-16T14:58:37;9.60;81.00
21518;DHT22;61765;45.794;24.150;2023-01-16T15:06:52;9.70;81.70
21518;DHT22;61765;45.794;24.150;2023-01-16T15:15:02;10.20;80.10
21518;DHT22;61765;45.794;24.150;2023-01-16T15:23:18;10.20;80.40
21518;DHT22;61765;45.794;24.150;2023-01-16T15:31:30;10.40;80.10
21518;DHT22;61765;45.794;24.150;2023-01-16T15:39:39;10.10;79.80
21518;DHT22;61765;45.794;24.150;2023-01-16T15:48:01;10.50;79.20
21518;DHT22;61765;45.794;24.150;2023-01-16T15:56:18;10.20;79.70
21518;DHT22;61765;45.794;24.150;2023-01-16T16:04:28;9.60;81.10
21518;DHT22;61765;45.794;24.150;2023-01-16T16:12:33;9.50;81.10
21518;DHT22;61765;45.794;24.150;2023-01-16T16:20:43;9.80;80.20
21518;DHT22;61765;45.794;24.150;2023-01-16T16:28:49;9.80;80.10
21518;DHT22;61765;45.794;24.150;2023-01-16T16:37:01;9.80;80.30
21518;DHT22;61765;45.794;24.150;2023-01-16T16:45:10;9.90;80.30
21518;DHT22;61765;45.794;24.150;2023-01-16T16:53:26;10.30;78.70
21518;DHT22;61765;45.794;24.150;2023-01-16T17:01:34;10.10;77.80
21518;DHT22;61765;45.794;24.150;2023-01-16T17:09:44;10.00;78.00
21518;DHT22;61765;45.794;24.150;2023-01-16T17:17:50;10.40;77.00
21518;DHT22;61765;45.794;24.150;2023-01-16T17:26:02;10.30;76.30
21518;DHT22;61765;45.794;24.150;2023-01-16T17:34:12;10.70;75.20
21518;DHT22;61765;45.794;24.150;2023-01-16T17:42:21;10.50;76.40
21518;DHT22;61765;45.794;24.150;2023-01-16T17:50:41;10.70;75.10
21518;DHT22;61765;45.794;24.150;2023-01-16T17:58:50;10.70;76.00
21518;DHT22;61765;45.794;24.150;2023-01-16T18:06:57;10.70;75.30
21518;DHT22;61765;45.794;24.150;2023-01-16T18:15:09;10.70;74.80
21518;DHT22;61765;45.794;24.150;2023-01-16T18:23:27;11.20;73.20
21518;DHT22;61765;45.794;24.150;2023-01-16T18:31:35;11.30;72.10
21518;DHT22;61765;45.794;24.150;2023-01-16T18:40:01;11.50;71.20
21518;DHT22;61765;45.794;24.150;2023-01-16T18:48:21;11.40;72.00
21518;DHT22;61765;45.794;24.150;2023-01-16T18:56:40;11.90;70.00
21518;DHT22;61765;45.794;24.150;2023-01-16T19:05:01;11.40;71.20
21518;DHT22;61765;45.794;24.150;2023-01-16T19:13:06;11.30;71.60
21518;DHT22;61765;45.794;24.150;2023-01-16T19:21:16;11.00;72.30
21518;DHT22;61765;45.794;24.150;2023-01-16T19:29:23;10.60;74.20
21518;DHT22;61765;45.794;24.150;2023-01-16T19:37:31;10.80;74.30
21518;DHT22;61765;45.794;24.150;2023-01-16T19:45:37;10.60;75.20
21518;DHT22;61765;45.794;24.150;2023-01-16T19:53:57;10.40;74.90
21518;DHT22;61765;45.794;24.150;2023-01-16T20:02:08;9.90;76.50
21518;DHT22;61765;45.794;24.150;2023-01-16T20:10:17;10.00;76.90
21518;DHT22;61765;45.794;24.150;2023-01-16T20:18:22;10.00;77.20
21518;DHT22;61765;45.794;24.150;2023-01-16T20:26:31;9.90;78.10
21518;DHT22;61765;45.794;24.150;2023-01-16T20:34:36;9.90;78.20
21518;DHT22;61765;45.794;24.150;2023-01-16T20:42:46;9.60;79.60
21518;DHT22;61765;45.794;24.150;2023-01-16T20:51:04;9.90;79.00
21518;DHT22;61765;45.794;24.150;2023-01-16T20:59:13;10.20;78.70
21518;DHT22;61765;45.794;24.150;2023-01-16T21:07:19;9.80;79.20
21518;DHT22;61765;45.794;24.150;2023-01-16T21:15:27;10.00;79.80
21518;DHT22;61765;45.794;24.150;2023-01-16T21:23:34;10.40;78.60
21518;DHT22;61765;45.794;24.150;2023-01-16T21:31:43;10.00;79.90
21518;DHT22;61765;45.794;24.150;2023-01-16T21:39:49;10.00;80.20
21518;DHT22;61765;45.794;24.150;2023-01-16T21:47:59;10.00;80.80
21518;DHT22;61765;45.794;24.150;2023-01-16T21:56:05;10.00;80.70
21518;DHT22;61765;45.794;24.150;2023-01-16T22:04:14;9.40;82.70
21518;DHT22;61765;45.794;24.150;2023-01-16T22:12:19;9.40;83.30
21518;DHT22;61765;45.794;24.150;2023-01-16T22:20:39;9.60;82.70
21518;DHT22;61765;45.794;24.150;2023-01-16T22:28:50;9.60;84.00
21518;DHT22;61765;45.794;24.150;2023-01-16T22:36:58;9.90;82.30
21518;DHT22;61765;45.794;24.150;2023-01-16T22:45:04;10.00;82.60
21518;DHT22;61765;45.794;24.150;2023-01-16T22:53:26;9.70;83.10
21518;DHT22;61765;45.794;24.150;2023-01-16T23:01:31;9.70;83.10
21518;DHT22;61765;45.794;24.150;2023-01-16T23:09:40;10.00;82.60
21518;DHT22;61765;45.794;24.150;2023-01-16T23:17:45;9.80;83.30
21518;DHT22;61765;45.794;24.150;2023-01-16T23:25:54;9.80;84.00
21518;DHT22;61765;45.794;24.150;2023-01-16T23:33:59;9.80;83.90
21518;DHT22;61765;45.794;24.150;2023-01-16T23:42:08;9.90;84.20
21518;DHT22;61765;45.794;24.150;2023-01-16T23:50:26;9.70;84.30
21518;DHT22;61765;45.794;24.150;2023-01-16T23:58:34;9.80;84.60
